Time;durP1;ratioP1;P1;durP2;ratioP2;P2;SDS_P1;SDS_P2;PMS_P1;PMS_P2;Temp;Humidity;BMP_temperature;BMP_pressure;BME280_temperature;BME280_humidity;BME280_pressure;Samples;Min_cycle;Max_cycle;Signal;HPM_P1;HPM_P2
2021/05/04 00:02:12;;;;;;;5.00;4.60;;;7.60;95.60;;;;;;4905874;29;20215;-84
2021/05/04 00:04:43;;;;;;;5.22;4.82;;;7.60;95.60;;;;;;4929845;23;20726;-80
2021/05/04 00:07:11;;;;;;;4.60;4.25;;;7.60;95.60;;;;;;4919059;29;20274;-80
2021/05/04 00:09:38;;;;;;;5.15;4.85;;;7.60;95.70;;;;;;4919259;29;20215;-80
2021/05/04 00:12:06;;;;;;;4.32;3.85;;;7.60;95.80;;;;;;4919326;29;20732;-80
2021/05/04 00:14:35;;;;;;;6.43;4.10;;;7.50;95.70;;;;;;4919264;29;20245;-80
2021/05/04 00:17:02;;;;;;;4.72;4.32;;;7.60;95.80;;;;;;4919359;29;20547;-82
2021/05/04 00:19:28;;;;;;;5.90;5.40;;;7.60;95.70;;;;;;4918714;29;20252;-80
2021/05/04 00:21:54;;;;;;;4.95;4.55;;;7.60;95.80;;;;;;4918871;29;20214;-78
2021/05/04 00:24:21;;;;;;;6.70;4.47;;;7.70;95.70;;;;;;4918970;29;20230;-80
2021/05/04 00:26:48;;;;;;;4.60;4.22;;;7.70;95.70;;;;;;4919148;29;20206;-80
2021/05/04 00:29:14;;;;;;;5.32;4.93;;;7.70;95.70;;;;;;4918786;29;20736;-82
2021/05/04 00:31:40;;;;;;;5.47;5.07;;;7.80;95.60;;;;;;4919718;29;20211;-80
2021/05/04 00:34:07;;;;;;;4.85;4.47;;;7.80;95.50;;;;;;4918746;29;20234;-79
2021/05/04 00:36:33;;;;;;;4.85;4.22;;;7.90;95.40;;;;;;4918846;29;20214;-80
2021/05/04 00:38:59;;;;;;;4.30;4.05;;;7.90;95.30;;;;;;4918812;29;20226;-81
2021/05/04 00:41:25;;;;;;;4.72;4.22;;;7.90;95.20;;;;;;4918580;29;20222;-80
2021/05/04 00:43:53;;;;;;;5.50;5.00;;;8.00;95.30;;;;;;4918120;29;20242;-80
2021/05/04 00:46:19;;;;;;;5.80;5.05;;;8.00;95.30;;;;;;4918516;29;20221;-80
2021/05/04 00:48:45;;;;;;;5.70;5.20;;;8.00;95.30;;;;;;4919020;29;20657;-80
2021/05/04 00:51:12;;;;;;;4.78;4.47;;;8.00;95.40;;;;;;4918963;29;20214;-80
2021/05/04 00:53:38;;;;;;;4.30;3.90;;;8.00;95.40;;;;;;4918347;29;20237;-80
2021/05/04 00:56:05;;;;;;;4.80;4.45;;;8.00;95.40;;;;;;4918833;29;20210;-79
2021/05/04 00:58:34;;;;;;;5.32;4.88;;;8.00;95.40;;;;;;4918716;29;20230;-79
2021/05/04 01:01:01;;;;;;;5.28;4.80;;;8.10;95.20;;;;;;4918750;29;20210;-80
2021/05/04 01:03:28;;;;;;;4.22;4.00;;;8.00;95.50;;;;;;4918185;29;20241;-80
2021/05/04 01:05:54;;;;;;;7.13;5.07;;;8.00;95.20;;;;;;4918371;29;20791;-80
2021/05/04 01:08:20;;;;;;;4.78;4.47;;;8.00;95.20;;;;;;4918307;29;20262;-80
2021/05/04 01:10:47;;;;;;;4.97;4.57;;;8.00;95.30;;;;;;4918021;29;20217;-80
2021/05/04 01:13:13;;;;;;;5.70;5.20;;;8.00;95.20;;;;;;4921050;29;20238;-79
2021/05/04 01:15:41;;;;;;;4.85;4.55;;;7.90;95.20;;;;;;4928049;29;20347;-79
2021/05/04 01:18:08;;;;;;;5.00;4.60;;;7.90;95.10;;;;;;4930025;29;20241;-78
2021/05/04 01:20:36;;;;;;;4.70;4.40;;;7.90;95.10;;;;;;4930818;29;20206;-78
2021/05/04 01:23:04;;;;;;;4.10;3.38;;;7.90;95.10;;;;;;4926432;29;20236;-82
2021/05/04 01:25:30;;;;;;;3.70;3.50;;;7.80;94.90;;;;;;4927467;29;20434;-77
2021/05/04 01:27:56;;;;;;;4.65;4.35;;;7.80;94.90;;;;;;4926629;29;20210;-79
2021/05/04 01:30:24;;;;;;;5.13;4.68;;;7.80;95.00;;;;;;4927035;29;20216;-78
2021/05/04 01:32:50;;;;;;;4.00;3.60;;;7.80;94.80;;;;;;4927884;29;20233;-82
2021/05/04 01:35:16;;;;;;;5.82;4.75;;;7.80;94.90;;;;;;4919998;29;20908;-80
2021/05/04 01:37:43;;;;;;;4.80;4.40;;;7.90;94.90;;;;;;4922604;29;20321;-82
2021/05/04 01:40:13;;;;;;;3.53;3.33;;;7.90;94.90;;;;;;4924016;29;20225;-82
2021/05/04 01:42:43;;;;;;;4.55;4.18;;;7.90;94.60;;;;;;4919984;29;20225;-81
2021/05/04 01:45:11;;;;;;;4.30;3.88;;;7.90;94.60;;;;;;4922772;29;20195;-80
2021/05/04 01:47:37;;;;;;;4.80;4.40;;;7.90;94.60;;;;;;4923245;29;20265;-82
2021/05/04 01:50:05;;;;;;;5.38;4.85;;;7.90;94.60;;;;;;4918793;29;20214;-82
2021/05/04 01:52:32;;;;;;;4.15;3.85;;;7.90;94.60;;;;;;4918063;29;20695;-81
2021/05/04 01:54:58;;;;;;;4.88;4.45;;;8.00;94.60;;;;;;4918019;29;20246;-82
2021/05/04 01:57:25;;;;;;;4.82;4.47;;;7.90;94.60;;;;;;4918024;29;20214;-80
2021/05/04 01:59:52;;;;;;;5.50;5.05;;;7.90;94.60;;;;;;4917766;29;20203;-81
2021/05/04 02:02:18;;;;;;;4.53;4.10;;;7.80;94.60;;;;;;4917332;29;20222;-81
2021/05/04 02:04:44;;;;;;;4.68;4.22;;;7.80;94.50;;;;;;4917320;29;20238;-81
2021/05/04 02:07:11;;;;;;;4.13;3.83;;;7.90;94.60;;;;;;4918320;29;20214;-79
2021/05/04 02:09:37;;;;;;;4.30;4.00;;;7.90;94.60;;;;;;4918361;29;20241;-80
2021/05/04 02:12:04;;;;;;;4.97;4.22;;;7.90;94.60;;;;;;4918814;29;20573;-79
2021/05/04 02:14:31;;;;;;;4.80;3.78;;;7.90;94.60;;;;;;4918427;29;20236;-79
2021/05/04 02:16:57;;;;;;;4.95;4.53;;;7.80;94.90;;;;;;4918267;29;20215;-80
2021/05/04 02:19:23;;;;;;;4.50;4.10;;;7.80;94.60;;;;;;4916851;29;20206;-83
2021/05/04 02:21:49;;;;;;;3.58;3.30;;;7.80;94.50;;;;;;4917327;29;20230;-81
2021/05/04 02:24:16;;;;;;;5.97;3.83;;;7.80;94.60;;;;;;4918071;29;20241;-82
2021/05/04 02:26:42;;;;;;;4.40;4.07;;;7.80;94.90;;;;;;4918166;29;20229;-82
2021/05/04 02:29:08;;;;;;;4.97;4.55;;;7.80;94.50;;;;;;4918604;29;20256;-82
2021/05/04 02:31:35;;;;;;;5.30;4.05;;;7.90;94.60;;;;;;4918409;29;20634;-80
2021/05/04 02:34:02;;;;;;;4.38;3.97;;;7.90;94.60;;;;;;4918365;29;20226;-82
2021/05/04 02:36:28;;;;;;;4.25;3.85;;;7.90;94.40;;;;;;4918030;29;20206;-82
2021/05/04 02:38:54;;;;;;;4.28;3.97;;;7.90;94.50;;;;;;4918389;29;20234;-81
2021/05/04 02:41:20;;;;;;;4.10;3.67;;;8.00;94.40;;;;;;4918784;29;20206;-81
2021/05/04 02:43:47;;;;;;;5.05;4.60;;;8.00;94.30;;;;;;4921940;29;20258;-81
2021/05/04 02:46:13;;;;;;;3.72;3.40;;;8.00;94.40;;;;;;4922248;29;20322;-81
2021/05/04 02:48:42;;;;;;;4.10;3.80;;;8.10;94.30;;;;;;4922321;29;20234;-81
2021/05/04 02:51:10;;;;;;;4.22;3.90;;;8.10;94.30;;;;;;4921802;29;20206;-81
2021/05/04 02:53:38;;;;;;;4.82;4.43;;;8.00;94.30;;;;;;4921284;29;20281;-81
2021/05/04 02:56:05;;;;;;;3.88;3.58;;;8.00;94.40;;;;;;4921528;29;20697;-82
2021/05/04 02:58:32;;;;;;;4.50;4.20;;;8.00;94.50;;;;;;4921759;29;20211;-80
2021/05/04 03:00:58;;;;;;;5.43;4.93;;;8.00;94.50;;;;;;4921949;29;20691;-82
2021/05/04 03:03:24;;;;;;;5.45;4.22;;;8.00;94.40;;;;;;4921008;29;20252;-82
2021/05/04 03:05:52;;;;;;;4.88;4.57;;;8.10;94.50;;;;;;4921752;29;20214;-81
2021/05/04 03:08:18;;;;;;;3.60;3.40;;;8.00;94.40;;;;;;4920768;29;20230;-81
2021/05/04 03:10:44;;;;;;;4.10;3.70;;;8.00;94.50;;;;;;4921935;29;20800;-81
2021/05/04 03:13:11;;;;;;;5.60;4.40;;;7.90;94.50;;;;;;4921141;29;20724;-81
2021/05/04 03:15:37;;;;;;;4.85;4.45;;;7.90;94.60;;;;;;4921653;29;20304;-81
2021/05/04 03:18:04;;;;;;;5.30;4.85;;;7.90;94.70;;;;;;4921452;29;20234;-81
2021/05/04 03:20:30;;;;;;;7.53;3.90;;;8.00;94.70;;;;;;4920677;29;20218;-81
2021/05/04 03:22:57;;;;;;;4.72;4.30;;;7.90;94.60;;;;;;4920789;29;20218;-81
2021/05/04 03:25:23;;;;;;;6.13;3.72;;;8.00;94.60;;;;;;4921077;29;20238;-81
2021/05/04 03:27:50;;;;;;;3.90;3.50;;;8.00;94.60;;;;;;4921182;29;20750;-81
2021/05/04 03:30:17;;;;;;;4.00;3.60;;;8.10;94.60;;;;;;4921548;29;20238;-81
2021/05/04 03:32:44;;;;;;;4.32;4.03;;;8.10;94.40;;;;;;4920410;29;20210;-81
2021/05/04 03:35:11;;;;;;;3.28;2.97;;;8.00;94.30;;;;;;4920849;29;20253;-82
2021/05/04 03:37:37;;;;;;;4.95;4.60;;;8.10;94.30;;;;;;4920906;29;20222;-81
2021/05/04 03:40:06;;;;;;;3.72;3.42;;;8.10;94.20;;;;;;4920847;29;20266;-81
2021/05/04 03:42:32;;;;;;;3.88;3.50;;;8.20;94.30;;;;;;4920655;29;20214;-81
2021/05/04 03:44:58;;;;;;;3.30;3.03;;;8.20;94.00;;;;;;4921056;29;20242;-81
2021/05/04 03:47:25;;;;;;;4.05;3.70;;;8.20;93.90;;;;;;4920918;29;20221;-81
2021/05/04 03:49:51;;;;;;;3.50;3.30;;;8.30;93.90;;;;;;4921299;29;20266;-82
2021/05/04 03:52:17;;;;;;;4.05;3.67;;;8.30;93.80;;;;;;4920701;29;20211;-83
2021/05/04 03:54:45;;;;;;;4.82;3.50;;;8.30;93.70;;;;;;4921289;29;20597;-81
2021/05/04 03:57:12;;;;;;;5.70;3.50;;;8.30;93.80;;;;;;4922316;29;20289;-82
2021/05/04 03:59:38;;;;;;;4.40;3.97;;;8.40;93.50;;;;;;4920832;29;20289;-81
2021/05/04 04:02:05;;;;;;;3.45;3.13;;;8.40;93.40;;;;;;4920648;29;20207;-81
2021/05/04 04:04:34;;;;;;;4.72;4.40;;;8.40;93.50;;;;;;4920128;29;20266;-81
2021/05/04 04:07:00;;;;;;;3.28;3.08;;;8.40;93.40;;;;;;4920627;29;20214;-81
2021/05/04 04:09:26;;;;;;;3.95;3.65;;;8.50;93.40;;;;;;4920501;29;20270;-81
2021/05/04 04:11:52;;;;;;;3.78;3.47;;;8.50;93.30;;;;;;4920274;29;20210;-81
2021/05/04 04:14:20;;;;;;;3.75;3.22;;;8.50;93.30;;;;;;4920069;29;20627;-81
2021/05/04 04:16:46;;;;;;;2.80;2.50;;;8.50;93.20;;;;;;4920666;29;20218;-81
2021/05/04 04:19:13;;;;;;;3.95;3.13;;;8.60;93.20;;;;;;4920265;29;20211;-81
2021/05/04 04:21:39;;;;;;;3.75;3.45;;;8.60;93.20;;;;;;4920429;29;20210;-81
2021/05/04 04:24:06;;;;;;;4.07;3.38;;;8.60;93.10;;;;;;4920564;29;20234;-81
2021/05/04 04:26:33;;;;;;;4.13;3.70;;;8.70;93.20;;;;;;4920432;29;20684;-81
2021/05/04 04:28:59;;;;;;;4.28;3.88;;;8.60;93.30;;;;;;4919715;29;20242;-81
2021/05/04 04:31:26;;;;;;;3.90;3.15;;;8.70;93.30;;;;;;4919515;29;20203;-81
2021/05/04 04:33:52;;;;;;;3.05;2.85;;;8.70;93.20;;;;;;4919696;29;20715;-81
2021/05/04 04:36:19;;;;;;;2.17;2.08;;;8.70;93.20;;;;;;4920356;29;20217;-81
2021/05/04 04:38:45;;;;;;;2.88;2.65;;;8.70;93.40;;;;;;4919570;29;20206;-81
2021/05/04 04:41:11;;;;;;;3.00;2.80;;;8.80;93.10;;;;;;4920038;29;20297;-81
2021/05/04 04:43:37;;;;;;;3.13;2.88;;;8.80;93.10;;;;;;4919790;29;20231;-81
2021/05/04 04:46:04;;;;;;;3.20;3.00;;;8.80;93.00;;;;;;4919662;29;20215;-81
2021/05/04 04:48:31;;;;;;;2.40;2.30;;;8.80;93.00;;;;;;4919320;29;20234;-82
2021/05/04 04:50:57;;;;;;;3.33;3.13;;;8.80;93.10;;;;;;4919778;29;20218;-81
2021/05/04 04:53:24;;;;;;;3.25;3.05;;;8.80;93.10;;;;;;4919335;29;20238;-81
2021/05/04 04:55:50;;;;;;;7.05;3.33;;;8.80;93.00;;;;;;4919690;29;20277;-81
2021/05/04 04:58:16;;;;;;;3.67;3.38;;;8.90;93.00;;;;;;4919601;29;20217;-81
2021/05/04 05:00:43;;;;;;;2.63;2.45;;;8.90;93.00;;;;;;4919964;29;20222;-81
2021/05/04 05:03:09;;;;;;;6.57;3.70;;;8.90;92.80;;;;;;4920536;29;20238;-78
2021/05/04 05:05:36;;;;;;;3.10;2.80;;;8.90;92.70;;;;;;4929419;29;20242;-78
2021/05/04 05:08:02;;;;;;;2.60;2.50;;;9.00;92.60;;;;;;4929291;29;20603;-80
2021/05/04 05:10:28;;;;;;;2.92;2.72;;;8.90;92.60;;;;;;4929785;29;20233;-79
2021/05/04 05:12:55;;;;;;;2.75;2.58;;;9.00;92.60;;;;;;4922037;29;20214;-81
2021/05/04 05:15:21;;;;;;;3.30;3.08;;;9.00;92.50;;;;;;4919448;29;20297;-81
2021/05/04 05:17:47;;;;;;;2.72;2.53;;;9.10;92.40;;;;;;4919227;29;20210;-80
2021/05/04 05:20:14;;;;;;;3.08;2.75;;;9.20;92.50;;;;;;4919221;29;20218;-81
2021/05/04 05:22:44;;;;;;;2.75;2.55;;;9.30;92.40;;;;;;4919287;29;20862;-81
2021/05/04 05:25:11;;;;;;;2.42;2.22;;;9.30;92.00;;;;;;4919308;29;20203;-81
2021/05/04 05:27:37;;;;;;;2.75;2.55;;;9.30;91.90;;;;;;4919262;29;20211;-81
2021/05/04 05:30:06;;;;;;;3.50;3.25;;;9.30;92.00;;;;;;4919100;29;20669;-81
2021/05/04 05:32:32;;;;;;;2.53;2.40;;;9.50;91.90;;;;;;4918759;29;20206;-81
2021/05/04 05:35:00;;;;;;;3.40;3.10;;;9.60;91.90;;;;;;4919162;29;20236;-82
2021/05/04 05:37:26;;;;;;;2.70;2.50;;;9.70;91.50;;;;;;4919132;29;20214;-81
2021/05/04 05:39:53;;;;;;;2.60;2.40;;;9.70;91.30;;;;;;4919095;29;20657;-81
2021/05/04 05:42:20;;;;;;;4.13;3.47;;;9.80;91.40;;;;;;4918877;29;20218;-81
2021/05/04 05:44:46;;;;;;;2.70;2.50;;;9.90;91.20;;;;;;4919278;29;20227;-80
2021/05/04 05:47:13;;;;;;;3.10;2.60;;;10.00;90.80;;;;;;4918876;29;20241;-81
2021/05/04 05:49:39;;;;;;;2.95;2.75;;;10.10;90.40;;;;;;4919175;29;20494;-81
2021/05/04 05:52:06;;;;;;;5.63;5.10;;;10.20;90.30;;;;;;4918701;29;20211;-81
2021/05/04 05:54:32;;;;;;;2.90;2.70;;;10.20;90.10;;;;;;4918097;29;20240;-80
2021/05/04 05:56:59;;;;;;;2.37;2.27;;;10.30;90.20;;;;;;4918704;29;20217;-81
2021/05/04 05:59:25;;;;;;;2.27;2.17;;;10.40;90.20;;;;;;4918803;29;20457;-81
2021/05/04 06:01:52;;;;;;;3.27;2.80;;;10.50;89.80;;;;;;4918354;29;20452;-81
2021/05/04 06:04:18;;;;;;;3.10;2.80;;;10.60;89.50;;;;;;4918067;29;20487;-81
2021/05/04 06:06:44;;;;;;;2.73;2.53;;;10.70;89.10;;;;;;4918595;29;20982;-81
2021/05/04 06:09:10;;;;;;;5.67;5.30;;;10.80;89.50;;;;;;4917921;29;20500;-81
2021/05/04 06:11:37;;;;;;;2.10;2.00;;;10.90;88.80;;;;;;4918003;29;20468;-81
2021/05/04 06:14:04;;;;;;;3.20;2.90;;;11.00;88.00;;;;;;4918084;29;20481;-81
2021/05/04 06:16:30;;;;;;;3.57;3.23;;;11.10;88.00;;;;;;4918834;29;20555;-81
2021/05/04 06:18:57;;;;;;;2.53;2.33;;;11.10;88.30;;;;;;4922746;29;20463;-83
2021/05/04 06:21:23;;;;;;;4.30;3.00;;;11.30;87.70;;;;;;4923518;29;20827;-83
2021/05/04 06:23:50;;;;;;;3.07;2.87;;;11.40;87.60;;;;;;4923385;29;20485;-83
2021/05/04 06:26:18;;;;;;;8.17;3.23;;;11.50;86.70;;;;;;4923874;29;20465;-83
2021/05/04 06:28:47;;;;;;;5.70;2.40;;;11.60;86.50;;;;;;4925259;29;20493;-81
2021/05/04 06:31:15;;;;;;;2.73;2.53;;;11.70;86.40;;;;;;4924784;29;20541;-83
2021/05/04 06:33:42;;;;;;;3.40;3.10;;;11.70;86.00;;;;;;4924799;29;20972;-83
2021/05/04 06:36:08;;;;;;;2.70;2.60;;;11.80;85.00;;;;;;4925392;29;20458;-82
2021/05/04 06:38:35;;;;;;;2.50;2.30;;;11.80;85.30;;;;;;4928195;29;20448;-84
2021/05/04 06:41:02;;;;;;;2.37;2.27;;;11.90;84.00;;;;;;4933041;29;20461;-83
2021/05/04 06:43:32;;;;;;;2.60;2.40;;;12.00;84.70;;;;;;4933075;29;20495;-79
2021/05/04 06:45:59;;;;;;;2.90;2.70;;;12.10;83.90;;;;;;4932993;29;20955;-82
2021/05/04 06:48:26;;;;;;;2.17;2.07;;;12.20;82.80;;;;;;4933741;29;20491;-83
2021/05/04 06:50:53;;;;;;;3.83;2.20;;;12.40;82.80;;;;;;4931957;29;20483;-81
2021/05/04 06:53:19;;;;;;;2.97;2.77;;;12.50;82.30;;;;;;4930149;29;20472;-84
2021/05/04 06:55:46;;;;;;;2.10;1.90;;;12.60;81.40;;;;;;4932467;29;20445;-83
2021/05/04 06:58:13;;;;;;;2.20;2.10;;;12.60;81.00;;;;;;4931720;29;20454;-83
2021/05/04 07:00:39;;;;;;;3.10;2.90;;;12.70;79.80;;;;;;4924221;29;20446;-83
2021/05/04 07:03:05;;;;;;;2.57;2.47;;;12.80;80.00;;;;;;4923046;29;20869;-83
2021/05/04 07:05:33;;;;;;;3.00;2.17;;;12.90;80.00;;;;;;4920198;29;20462;-84
2021/05/04 07:07:59;;;;;;;2.60;2.40;;;12.90;77.50;;;;;;4922201;29;20466;-84
2021/05/04 07:10:25;;;;;;;2.30;2.00;;;13.00;78.10;;;;;;4924115;29;20595;-85
2021/05/04 07:12:52;;;;;;;3.07;2.87;;;13.00;77.90;;;;;;4923132;29;20457;-85
2021/05/04 07:15:18;;;;;;;2.17;2.00;;;13.10;77.80;;;;;;4922440;29;20465;-83
2021/05/04 07:17:44;;;;;;;2.10;2.00;;;13.20;79.10;;;;;;4922649;29;20547;-84
2021/05/04 07:20:12;;;;;;;4.70;2.50;;;13.30;77.50;;;;;;4922632;29;20446;-85
2021/05/04 07:22:39;;;;;;;2.10;2.00;;;13.30;77.50;;;;;;4922427;29;20472;-81
2021/05/04 07:25:06;;;;;;;2.20;2.07;;;13.40;76.30;;;;;;4921251;29;20477;-82
2021/05/04 07:27:33;;;;;;;3.00;2.80;;;13.40;76.00;;;;;;4922390;29;20505;-83
2021/05/04 07:29:59;;;;;;;1.97;1.87;;;13.50;77.50;;;;;;4922529;29;20869;-84
2021/05/04 07:32:26;;;;;;;2.03;1.93;;;13.60;77.40;;;;;;4922862;29;20459;-82
2021/05/04 07:34:53;;;;;;;2.50;1.83;;;13.60;75.80;;;;;;4922124;29;20481;-82
2021/05/04 07:37:19;;;;;;;2.57;2.37;;;13.60;75.80;;;;;;4918210;29;20979;-82
2021/05/04 07:39:46;;;;;;;2.57;1.93;;;13.70;76.30;;;;;;4920059;29;20450;-82
2021/05/04 07:42:13;;;;;;;3.70;2.20;;;13.80;75.90;;;;;;4919863;29;20465;-82
2021/05/04 07:44:39;;;;;;;2.20;2.00;;;13.90;74.90;;;;;;4919698;29;20559;-81
2021/05/04 07:47:06;;;;;;;2.17;2.03;;;14.00;76.30;;;;;;4918794;29;20468;-81
2021/05/04 07:49:34;;;;;;;1.90;1.80;;;14.20;75.80;;;;;;4920359;29;20522;-82
2021/05/04 07:52:01;;;;;;;2.70;2.40;;;14.40;74.90;;;;;;4919135;29;20462;-82
2021/05/04 07:54:27;;;;;;;1.90;1.80;;;14.60;74.80;;;;;;4919256;29;20478;-82
2021/05/04 07:56:54;;;;;;;2.70;1.70;;;14.80;72.20;;;;;;4919391;29;20472;-81
2021/05/04 07:59:21;;;;;;;1.43;1.33;;;15.00;72.30;;;;;;4919044;29;20476;-83
2021/05/04 08:01:47;;;;;;;2.50;1.70;;;15.10;70.90;;;;;;4919077;29;20447;-82
2021/05/04 08:04:14;;;;;;;2.33;2.13;;;15.20;70.00;;;;;;4919524;29;20486;-83
2021/05/04 08:06:40;;;;;;;2.17;2.00;;;15.40;70.70;;;;;;4918812;29;20541;-82
2021/05/04 08:09:07;;;;;;;3.83;1.60;;;15.50;70.70;;;;;;4918464;29;20571;-82
2021/05/04 08:11:34;;;;;;;2.07;1.87;;;15.70;69.60;;;;;;4920035;29;20458;-82
2021/05/04 08:14:01;;;;;;;3.00;1.83;;;15.70;68.40;;;;;;4920651;29;20487;-80
2021/05/04 08:16:28;;;;;;;2.43;2.27;;;15.70;66.70;;;;;;4920015;29;20465;-82
2021/05/04 08:18:55;;;;;;;2.57;2.37;;;15.70;67.00;;;;;;4919413;29;20553;-81
2021/05/04 08:21:22;;;;;;;1.77;1.60;;;15.70;67.10;;;;;;4918621;29;20535;-81
2021/05/04 08:23:48;;;;;;;1.90;1.80;;;15.70;65.30;;;;;;4919601;29;20486;-82
2021/05/04 08:26:15;;;;;;;3.30;2.10;;;15.70;65.80;;;;;;4919463;29;20466;-82
2021/05/04 08:28:41;;;;;;;2.17;1.97;;;15.50;65.40;;;;;;4919139;29;20550;-81
2021/05/04 08:31:11;;;;;;;1.70;1.60;;;15.50;66.30;;;;;;4919338;29;20463;-82
2021/05/04 08:33:37;;;;;;;2.03;1.93;;;15.40;65.20;;;;;;4919606;29;20479;-81
2021/05/04 08:36:04;;;;;;;2.93;2.03;;;15.40;66.20;;;;;;4919314;29;20486;-82
2021/05/04 08:38:30;;;;;;;3.13;1.80;;;15.30;65.70;;;;;;4919589;29;20590;-81
2021/05/04 08:40:56;;;;;;;1.60;1.50;;;15.40;65.60;;;;;;4918708;29;20462;-82
2021/05/04 08:43:24;;;;;;;2.40;2.20;;;15.50;66.70;;;;;;4919329;29;20860;-82
2021/05/04 08:45:56;;;;;;;2.20;2.00;;;15.40;65.50;;;;;;4919112;29;20518;-81
2021/05/04 08:48:24;;;;;;;3.57;2.83;;;15.50;66.40;;;;;;4918659;29;20541;-82
2021/05/04 08:50:52;;;;;;;5.47;2.83;;;15.60;65.40;;;;;;4919528;29;20459;-82
2021/05/04 08:53:18;;;;;;;1.60;1.50;;;15.70;65.00;;;;;;4919268;29;20491;-82
2021/05/04 08:55:44;;;;;;;2.37;2.17;;;15.80;67.30;;;;;;4919298;29;20829;-82
2021/05/04 08:58:10;;;;;;;2.23;1.70;;;15.80;65.40;;;;;;4918945;29;20465;-83
2021/05/04 09:00:37;;;;;;;1.90;1.77;;;15.90;65.40;;;;;;4919621;29;20462;-84
2021/05/04 09:03:07;;;;;;;3.23;2.07;;;16.00;65.50;;;;;;4919920;29;20871;-82
2021/05/04 09:05:38;;;;;;;1.90;1.60;;;16.10;64.80;;;;;;4919025;29;20486;-81
2021/05/04 09:08:09;;;;;;;1.90;1.80;;;16.30;66.70;;;;;;4917863;29;20483;-81
2021/05/04 09:10:41;;;;;;;2.03;1.93;;;16.30;64.10;;;;;;4918830;29;20459;-81
2021/05/04 09:13:19;;;;;;;2.20;2.10;;;16.30;63.70;;;;;;4919444;29;20489;-82
2021/05/04 09:21:29;;;;;;;2.10;2.00;;;16.20;62.40;;;;;;4906869;29;20524;-82
2021/05/04 09:28:15;;;;;;;2.37;2.17;;;15.60;63.90;;;;;;4917438;29;20464;-82
2021/05/04 09:31:01;;;;;;;1.93;1.77;;;15.70;63.50;;;;;;4909191;29;20538;-82
2021/05/04 09:33:45;;;;;;;1.80;1.70;;;16.00;63.50;;;;;;4920769;29;20509;-82
2021/05/04 09:36:42;;;;;;;4.00;1.93;;;16.10;63.90;;;;;;4920717;29;20424;-83
2021/05/04 09:42:13;;;;;;;3.90;2.00;;;16.30;61.10;;;;;;4918892;29;20617;-81
2021/05/04 09:44:41;;;;;;;2.60;1.87;;;16.40;62.40;;;;;;4920763;29;21080;-81
2021/05/04 09:47:12;;;;;;;4.90;1.87;;;16.50;61.90;;;;;;4920041;29;21067;-81
2021/05/04 09:49:39;;;;;;;1.50;1.40;;;16.50;61.10;;;;;;4919266;29;21008;-81
2021/05/04 09:52:18;;;;;;;5.67;2.60;;;16.50;60.70;;;;;;4918875;29;20459;-82
2021/05/04 09:54:45;;;;;;;2.37;2.17;;;16.60;62.40;;;;;;4919883;29;20545;-81
2021/05/04 09:57:37;;;;;;;2.33;2.13;;;16.70;59.50;;;;;;4919197;29;20456;-81
2021/05/04 10:00:07;;;;;;;1.90;1.80;;;16.80;59.80;;;;;;4920762;29;20455;-82
2021/05/04 10:02:34;;;;;;;2.10;2.00;;;16.80;60.20;;;;;;4920768;29;20491;-82
2021/05/04 10:05:01;;;;;;;1.90;1.80;;;16.70;60.20;;;;;;4920451;29;20496;-84
2021/05/04 10:07:31;;;;;;;3.50;2.60;;;16.60;60.20;;;;;;4920797;29;20905;-83
2021/05/04 10:09:59;;;;;;;1.93;1.83;;;16.60;61.40;;;;;;4918584;29;20493;-84
2021/05/04 10:12:28;;;;;;;2.70;2.60;;;16.60;59.90;;;;;;4920821;29;20475;-82
2021/05/04 10:14:56;;;;;;;1.80;1.70;;;16.50;59.70;;;;;;4925777;29;20477;-80
2021/05/04 10:17:23;;;;;;;2.67;2.20;;;16.80;61.80;;;;;;4938107;29;20457;-82
2021/05/04 10:19:50;;;;;;;1.93;1.80;;;17.00;61.20;;;;;;4938791;29;20467;-81
2021/05/04 10:22:18;;;;;;;1.90;1.80;;;17.30;60.60;;;;;;4936354;29;20463;-80
2021/05/04 10:24:46;;;;;;;2.20;2.00;;;17.40;59.70;;;;;;4921133;29;20479;-81
2021/05/04 10:27:12;;;;;;;2.20;2.00;;;17.40;58.40;;;;;;4920539;29;20915;-82
2021/05/04 10:29:40;;;;;;;2.03;1.83;;;17.40;58.00;;;;;;4920264;29;20528;-82
2021/05/04 10:32:12;;;;;;;2.80;2.43;;;17.40;58.20;;;;;;4919668;29;20463;-82
2021/05/04 10:34:41;;;;;;;3.03;2.73;;;17.30;58.20;;;;;;4920078;29;20492;-81
2021/05/04 10:37:31;;;;;;;4.10;2.50;;;17.00;58.70;;;;;;4921855;29;20497;-81
2021/05/04 10:39:58;;;;;;;2.53;1.90;;;17.00;59.10;;;;;;4920228;29;20458;-83
2021/05/04 10:42:34;;;;;;;1.90;1.80;;;17.20;59.80;;;;;;4920740;29;20546;-83
2021/05/04 10:45:10;;;;;;;2.93;2.73;;;17.20;59.20;;;;;;4920429;29;20486;-83
2021/05/04 10:47:48;;;;;;;3.47;2.67;;;17.30;58.70;;;;;;4919622;29;20523;-82
2021/05/04 10:50:15;;;;;;;2.30;2.00;;;17.50;59.90;;;;;;4918638;29;20495;-82
2021/05/04 10:53:00;;;;;;;1.53;1.43;;;17.60;60.20;;;;;;4919114;29;20564;-82
2021/05/04 10:56:21;;;;;;;;;;;;;;;;;;;;;
2021/05/04 10:59:39;;;;;;;;;;;;;;;;;;;;;
2021/05/04 11:02:53;;;;;;;2.60;2.00;;;16.70;58.20;;;;;;4822762;29;20989;-85
2021/05/04 11:38:26;;;;;;;2.40;2.30;;;17.10;60.10;;;;;;4849385;29;20519;-82
2021/05/04 11:40:53;;;;;;;2.27;2.07;;;17.40;57.70;;;;;;4909413;29;20465;-83
2021/05/04 11:43:21;;;;;;;3.17;2.33;;;17.50;56.90;;;;;;4922573;29;20492;-83
2021/05/04 11:52:30;;;;;;;1.87;1.77;;;17.40;58.20;;;;;;4851489;29;20457;-84
2021/05/04 11:55:09;;;;;;;1.73;1.40;;;17.50;58.00;;;;;;4922817;29;20540;-83
2021/05/04 11:57:37;;;;;;;2.27;2.10;;;18.00;57.70;;;;;;4922640;29;20443;-83
2021/05/04 12:00:05;;;;;;;2.10;1.90;;;18.10;56.80;;;;;;4922866;29;20461;-82
2021/05/04 12:02:32;;;;;;;1.87;1.77;;;17.80;56.90;;;;;;4921552;29;20955;-82
2021/05/04 12:04:59;;;;;;;1.90;1.80;;;17.60;56.70;;;;;;4921933;29;20861;-83
2021/05/04 12:07:42;;;;;;;1.70;1.60;;;17.40;57.60;;;;;;4922364;29;20460;-83
2021/05/04 12:10:23;;;;;;;3.30;1.80;;;17.50;57.80;;;;;;4922103;29;20502;-83
2021/05/04 12:12:50;;;;;;;2.70;2.07;;;17.70;58.70;;;;;;4921984;29;20465;-83
2021/05/04 12:15:18;;;;;;;2.27;2.07;;;18.20;58.90;;;;;;4921745;29;20488;-81
2021/05/04 12:17:55;;;;;;;2.53;2.43;;;18.40;57.00;;;;;;4922392;29;20452;-81
2021/05/04 12:20:22;;;;;;;3.50;2.20;;;17.90;57.40;;;;;;4922030;29;20467;-82
2021/05/04 12:22:49;;;;;;;2.60;1.90;;;17.60;58.10;;;;;;4922003;29;20977;-82
2021/05/04 12:25:18;;;;;;;2.07;1.97;;;17.30;58.60;;;;;;4922005;29;20451;-83
2021/05/04 12:27:46;;;;;;;2.27;2.07;;;17.20;59.50;;;;;;4922782;29;20460;-82
2021/05/04 12:30:14;;;;;;;2.60;1.83;;;17.00;60.80;;;;;;4922116;29;20590;-80
2021/05/04 12:32:41;;;;;;;1.90;1.80;;;17.00;61.50;;;;;;4921944;29;20829;-80
2021/05/04 12:35:22;;;;;;;1.97;1.87;;;17.00;63.20;;;;;;4929762;29;20470;-80
2021/05/04 12:37:50;;;;;;;2.73;2.30;;;17.10;63.70;;;;;;4928175;29;20456;-80
2021/05/04 12:40:20;;;;;;;2.40;2.20;;;17.40;62.00;;;;;;4930609;29;20598;-83
2021/05/04 12:42:48;;;;;;;4.10;2.77;;;17.70;64.00;;;;;;4928566;29;20867;-82
2021/05/04 12:45:16;;;;;;;1.97;1.87;;;18.00;65.70;;;;;;4940452;29;20459;-82
2021/05/04 12:47:53;;;;;;;1.97;1.83;;;17.60;65.10;;;;;;4941203;29;20878;-82
2021/05/04 12:50:31;;;;;;;3.57;2.00;;;17.20;66.20;;;;;;4940660;29;21178;-83
2021/05/04 12:52:57;;;;;;;2.60;2.03;;;16.80;67.70;;;;;;4939950;29;20442;-81
2021/05/04 12:55:24;;;;;;;2.00;1.90;;;16.40;69.30;;;;;;4940351;29;20864;-81
2021/05/04 12:58:11;;;;;;;2.87;2.63;;;16.10;71.20;;;;;;4939716;29;20465;-80
2021/05/04 13:00:37;;;;;;;2.47;2.27;;;16.10;72.40;;;;;;4940080;29;20541;-82
2021/05/04 13:03:06;;;;;;;4.03;1.77;;;16.20;71.40;;;;;;4939270;29;20996;-79
2021/05/04 13:05:33;;;;;;;3.93;2.23;;;16.10;71.70;;;;;;4940693;29;20449;-83
2021/05/04 13:08:11;;;;;;;1.90;1.80;;;16.30;73.50;;;;;;4940348;29;20463;-84
2021/05/04 13:10:59;;;;;;;2.50;2.00;;;16.50;73.20;;;;;;4940191;29;20553;-83
2021/05/04 13:31:43;;;;;;;1.97;1.67;;;16.40;68.30;;;;;;4940266;29;20487;-83
2021/05/04 13:34:14;;;;;;;1.80;1.70;;;16.30;66.60;;;;;;4939983;29;20477;-82
2021/05/04 13:36:41;;;;;;;2.13;2.03;;;16.00;67.20;;;;;;4940332;29;20820;-82
2021/05/04 13:39:18;;;;;;;2.00;1.90;;;15.90;68.00;;;;;;4940474;29;20479;-83
2021/05/04 13:47:32;;;;;;;2.07;1.97;;;16.00;67.90;;;;;;4903439;29;20478;-80
2021/05/04 13:49:58;;;;;;;3.67;2.60;;;16.00;69.30;;;;;;4940438;29;20529;-82
2021/05/04 13:52:24;;;;;;;2.17;2.07;;;16.00;70.80;;;;;;4940354;29;20485;-82
2021/05/04 13:54:53;;;;;;;3.00;2.60;;;16.00;72.10;;;;;;4940281;29;20477;-83
2021/05/04 13:57:20;;;;;;;2.57;2.27;;;16.00;72.10;;;;;;4940106;29;20840;-82
2021/05/04 13:59:50;;;;;;;1.93;1.83;;;15.70;71.20;;;;;;4940560;29;20975;-82
2021/05/04 14:02:21;;;;;;;3.43;2.17;;;15.10;73.00;;;;;;4940276;29;20520;-81
2021/05/04 14:04:54;;;;;;;2.90;2.40;;;15.00;76.60;;;;;;4939690;29;21055;-82
2021/05/04 14:27:02;;;;;;;3.60;2.27;;;14.90;78.00;;;;;;4939912;29;20472;-83
2021/05/04 14:29:50;;;;;;;1.57;1.47;;;14.70;81.10;;;;;;4939288;29;20544;-82
2021/05/04 14:33:05;;;;;;;;;;;;;;;;;;;;;
2021/05/04 14:35:51;;;;;;;3.83;1.80;;;14.20;81.70;;;;;;4855516;29;21125;-82
2021/05/04 14:38:44;;;;;;;2.00;1.90;;;14.10;81.80;;;;;;4940887;29;20958;-82
2021/05/04 14:41:52;;;;;;;2.23;2.13;;;13.90;80.30;;;;;;4894028;29;20955;-82